sensor_id;sensor_type;location;lat;lon;timestamp;P1;durP1;ratioP1;P2;durP2;ratioP2
78312;SDS011;67568;47.438;21.408;2023-06-22T00:00:27;6.63;;;2.10;;
78312;SDS011;67568;47.438;21.408;2023-06-22T00:02:55;5.65;;;1.60;;
78312;SDS011;67568;47.438;21.408;2023-06-22T00:08:11;6.85;;;1.40;;
78312;SDS011;67568;47.438;21.408;2023-06-22T00:13:14;6.67;;;2.20;;
78312;SDS011;67568;47.438;21.408;2023-06-22T00:15:48;8.27;;;2.10;;
78312;SDS011;67568;47.438;21.408;2023-06-22T00:18:15;6.85;;;1.95;;
78312;SDS011;67568;47.438;21.408;2023-06-22T00:23:17;7.15;;;2.35;;
78312;SDS011;67568;47.438;21.408;2023-06-22T00:25:44;8.53;;;2.20;;
78312;SDS011;67568;47.438;21.408;2023-06-22T00:30:56;7.68;;;2.38;;
78312;SDS011;67568;47.438;21.408;2023-06-22T00:36:10;6.65;;;2.10;;
78312;SDS011;67568;47.438;21.408;2023-06-22T00:38:40;6.93;;;2.23;;
78312;SDS011;67568;47.438;21.408;2023-06-22T00:41:11;7.13;;;2.10;;
78312;SDS011;67568;47.438;21.408;2023-06-22T00:49:22;7.18;;;2.50;;
78312;SDS011;67568;47.438;21.408;2023-06-22T00:51:52;8.93;;;2.57;;
78312;SDS011;67568;47.438;21.408;2023-06-22T01:05:04;8.60;;;2.35;;
78312;SDS011;67568;47.438;21.408;2023-06-22T01:17:42;8.77;;;2.63;;
78312;SDS011;67568;47.438;21.408;2023-06-22T01:20:13;11.48;;;2.42;;
78312;SDS011;67568;47.438;21.408;2023-06-22T01:22:59;6.07;;;2.47;;
78312;SDS011;67568;47.438;21.408;2023-06-22T01:26:49;7.20;;;2.28;;
78312;SDS011;67568;47.438;21.408;2023-06-22T01:29:26;9.18;;;2.92;;
78312;SDS011;67568;47.438;21.408;2023-06-22T01:31:55;8.05;;;2.70;;
78312;SDS011;67568;47.438;21.408;2023-06-22T01:34:35;9.88;;;2.90;;
78312;SDS011;67568;47.438;21.408;2023-06-22T01:37:08;11.93;;;3.33;;
78312;SDS011;67568;47.438;21.408;2023-06-22T01:39:35;9.23;;;2.90;;
78312;SDS011;67568;47.438;21.408;2023-06-22T01:42:03;9.77;;;2.75;;
78312;SDS011;67568;47.438;21.408;2023-06-22T01:44:33;8.68;;;2.60;;
78312;SDS011;67568;47.438;21.408;2023-06-22T01:47:08;7.63;;;2.72;;
78312;SDS011;67568;47.438;21.408;2023-06-22T01:49:35;8.97;;;2.70;;
78312;SDS011;67568;47.438;21.408;2023-06-22T01:52:03;7.13;;;3.28;;
78312;SDS011;67568;47.438;21.408;2023-06-22T01:54:30;10.75;;;3.22;;
78312;SDS011;67568;47.438;21.408;2023-06-22T01:56:57;8.38;;;3.22;;
78312;SDS011;67568;47.438;21.408;2023-06-22T01:59:28;10.65;;;3.10;;
78312;SDS011;67568;47.438;21.408;2023-06-22T02:02:02;10.37;;;3.03;;
78312;SDS011;67568;47.438;21.408;2023-06-22T02:04:37;10.13;;;3.25;;
78312;SDS011;67568;47.438;21.408;2023-06-22T02:07:14;8.75;;;2.80;;
78312;SDS011;67568;47.438;21.408;2023-06-22T02:09:44;9.15;;;2.95;;
78312;SDS011;67568;47.438;21.408;2023-06-22T02:12:17;9.75;;;2.95;;
78312;SDS011;67568;47.438;21.408;2023-06-22T02:14:49;9.50;;;3.17;;
78312;SDS011;67568;47.438;21.408;2023-06-22T02:17:18;9.73;;;3.33;;
78312;SDS011;67568;47.438;21.408;2023-06-22T02:19:48;10.48;;;3.33;;
78312;SDS011;67568;47.438;21.408;2023-06-22T02:22:16;9.48;;;3.35;;
78312;SDS011;67568;47.438;21.408;2023-06-22T02:24:43;10.45;;;3.33;;
78312;SDS011;67568;47.438;21.408;2023-06-22T02:27:10;8.00;;;2.70;;
78312;SDS011;67568;47.438;21.408;2023-06-22T02:29:36;14.07;;;3.22;;
78312;SDS011;67568;47.438;21.408;2023-06-22T02:32:03;8.52;;;2.72;;
78312;SDS011;67568;47.438;21.408;2023-06-22T02:34:33;8.15;;;2.78;;
78312;SDS011;67568;47.438;21.408;2023-06-22T02:37:02;9.10;;;2.70;;
78312;SDS011;67568;47.438;21.408;2023-06-22T02:39:29;10.27;;;3.30;;
78312;SDS011;67568;47.438;21.408;2023-06-22T02:41:56;9.40;;;3.38;;
78312;SDS011;67568;47.438;21.408;2023-06-22T02:44:23;8.70;;;3.20;;
78312;SDS011;67568;47.438;21.408;2023-06-22T02:46:50;8.75;;;3.05;;
78312;SDS011;67568;47.438;21.408;2023-06-22T02:49:28;10.23;;;3.58;;
78312;SDS011;67568;47.438;21.408;2023-06-22T02:51:57;7.53;;;3.00;;
78312;SDS011;67568;47.438;21.408;2023-06-22T02:54:24;13.70;;;3.28;;
78312;SDS011;67568;47.438;21.408;2023-06-22T02:56:51;12.07;;;3.05;;
78312;SDS011;67568;47.438;21.408;2023-06-22T02:59:18;10.30;;;3.15;;
78312;SDS011;67568;47.438;21.408;2023-06-22T03:01:46;10.88;;;3.30;;
78312;SDS011;67568;47.438;21.408;2023-06-22T03:04:16;13.37;;;3.30;;
78312;SDS011;67568;47.438;21.408;2023-06-22T03:06:43;9.50;;;3.40;;
78312;SDS011;67568;47.438;21.408;2023-06-22T03:09:10;8.50;;;3.33;;
78312;SDS011;67568;47.438;21.408;2023-06-22T03:11:36;11.38;;;3.80;;
78312;SDS011;67568;47.438;21.408;2023-06-22T03:14:03;10.68;;;3.58;;
78312;SDS011;67568;47.438;21.408;2023-06-22T03:16:30;7.60;;;3.33;;
78312;SDS011;67568;47.438;21.408;2023-06-22T03:18:57;13.20;;;3.80;;
78312;SDS011;67568;47.438;21.408;2023-06-22T03:21:27;12.68;;;3.60;;
78312;SDS011;67568;47.438;21.408;2023-06-22T03:23:55;10.07;;;3.28;;
78312;SDS011;67568;47.438;21.408;2023-06-22T03:26:22;11.00;;;3.33;;
78312;SDS011;67568;47.438;21.408;2023-06-22T03:28:49;9.57;;;3.00;;
78312;SDS011;67568;47.438;21.408;2023-06-22T03:31:16;9.27;;;2.97;;
78312;SDS011;67568;47.438;21.408;2023-06-22T03:33:42;10.75;;;3.80;;
78312;SDS011;67568;47.438;21.408;2023-06-22T03:36:09;14.10;;;3.50;;
78312;SDS011;67568;47.438;21.408;2023-06-22T03:38:36;8.07;;;3.00;;
78312;SDS011;67568;47.438;21.408;2023-06-22T03:41:05;14.10;;;3.40;;
78312;SDS011;67568;47.438;21.408;2023-06-22T03:43:32;10.55;;;3.30;;
78312;SDS011;67568;47.438;21.408;2023-06-22T03:46:02;10.30;;;3.15;;
78312;SDS011;67568;47.438;21.408;2023-06-22T03:48:30;9.98;;;3.38;;
78312;SDS011;67568;47.438;21.408;2023-06-22T03:50:59;12.82;;;3.40;;
78312;SDS011;67568;47.438;21.408;2023-06-22T03:53:32;14.00;;;3.50;;
78312;SDS011;67568;47.438;21.408;2023-06-22T03:55:59;13.13;;;3.75;;
78312;SDS011;67568;47.438;21.408;2023-06-22T03:58:27;10.00;;;3.38;;
78312;SDS011;67568;47.438;21.408;2023-06-22T04:01:12;10.07;;;2.88;;
78312;SDS011;67568;47.438;21.408;2023-06-22T04:03:39;9.85;;;3.20;;
78312;SDS011;67568;47.438;21.408;2023-06-22T04:06:06;17.90;;;3.50;;
78312;SDS011;67568;47.438;21.408;2023-06-22T04:08:32;11.52;;;3.15;;
78312;SDS011;67568;47.438;21.408;2023-06-22T04:10:59;11.07;;;3.13;;
78312;SDS011;67568;47.438;21.408;2023-06-22T04:13:26;10.90;;;3.97;;
78312;SDS011;67568;47.438;21.408;2023-06-22T04:16:05;11.00;;;3.28;;
78312;SDS011;67568;47.438;21.408;2023-06-22T04:19:10;12.67;;;3.60;;
78312;SDS011;67568;47.438;21.408;2023-06-22T04:21:37;13.65;;;3.50;;
78312;SDS011;67568;47.438;21.408;2023-06-22T04:24:04;9.73;;;3.72;;
78312;SDS011;67568;47.438;21.408;2023-06-22T04:26:31;9.07;;;3.60;;
78312;SDS011;67568;47.438;21.408;2023-06-22T04:28:58;10.80;;;3.30;;
78312;SDS011;67568;47.438;21.408;2023-06-22T04:31:25;9.07;;;3.20;;
78312;SDS011;67568;47.438;21.408;2023-06-22T04:33:56;10.93;;;3.40;;
78312;SDS011;67568;47.438;21.408;2023-06-22T04:36:22;11.85;;;3.50;;
78312;SDS011;67568;47.438;21.408;2023-06-22T04:39:11;9.85;;;3.33;;
78312;SDS011;67568;47.438;21.408;2023-06-22T04:41:59;11.88;;;3.80;;
78312;SDS011;67568;47.438;21.408;2023-06-22T04:44:41;12.50;;;3.40;;
78312;SDS011;67568;47.438;21.408;2023-06-22T04:47:09;12.40;;;3.85;;
78312;SDS011;67568;47.438;21.408;2023-06-22T04:49:56;10.52;;;3.75;;
78312;SDS011;67568;47.438;21.408;2023-06-22T04:52:54;14.68;;;4.13;;
78312;SDS011;67568;47.438;21.408;2023-06-22T04:55:21;15.85;;;3.85;;
78312;SDS011;67568;47.438;21.408;2023-06-22T04:57:51;11.67;;;3.50;;
78312;SDS011;67568;47.438;21.408;2023-06-22T05:00:18;12.05;;;4.05;;
78312;SDS011;67568;47.438;21.408;2023-06-22T05:03:01;13.10;;;3.35;;
78312;SDS011;67568;47.438;21.408;2023-06-22T05:05:45;36.35;;;5.60;;
78312;SDS011;67568;47.438;21.408;2023-06-22T05:08:12;18.58;;;4.25;;
78312;SDS011;67568;47.438;21.408;2023-06-22T05:10:40;9.73;;;3.60;;
78312;SDS011;67568;47.438;21.408;2023-06-22T05:13:30;10.25;;;3.92;;
78312;SDS011;67568;47.438;21.408;2023-06-22T05:16:37;10.40;;;3.65;;
78312;SDS011;67568;47.438;21.408;2023-06-22T05:19:13;9.82;;;3.75;;
78312;SDS011;67568;47.438;21.408;2023-06-22T05:21:59;11.93;;;3.95;;
78312;SDS011;67568;47.438;21.408;2023-06-22T05:24:25;12.50;;;3.60;;
78312;SDS011;67568;47.438;21.408;2023-06-22T05:26:57;13.50;;;3.53;;
78312;SDS011;67568;47.438;21.408;2023-06-22T05:29:26;9.98;;;3.40;;
78312;SDS011;67568;47.438;21.408;2023-06-22T05:31:53;10.15;;;3.55;;
78312;SDS011;67568;47.438;21.408;2023-06-22T05:34:19;16.02;;;3.97;;
78312;SDS011;67568;47.438;21.408;2023-06-22T05:36:58;13.00;;;3.60;;
78312;SDS011;67568;47.438;21.408;2023-06-22T05:39:32;16.35;;;4.30;;
78312;SDS011;67568;47.438;21.408;2023-06-22T05:41:59;11.43;;;3.28;;
78312;SDS011;67568;47.438;21.408;2023-06-22T05:44:26;14.85;;;4.00;;
78312;SDS011;67568;47.438;21.408;2023-06-22T05:46:53;14.07;;;3.67;;
78312;SDS011;67568;47.438;21.408;2023-06-22T05:49:19;10.17;;;3.33;;
78312;SDS011;67568;47.438;21.408;2023-06-22T05:51:46;13.73;;;3.72;;
78312;SDS011;67568;47.438;21.408;2023-06-22T05:54:16;13.70;;;3.83;;
78312;SDS011;67568;47.438;21.408;2023-06-22T05:56:43;11.82;;;3.60;;
78312;SDS011;67568;47.438;21.408;2023-06-22T05:59:13;11.82;;;3.50;;
78312;SDS011;67568;47.438;21.408;2023-06-22T06:01:40;13.70;;;3.30;;
78312;SDS011;67568;47.438;21.408;2023-06-22T06:04:07;9.88;;;2.88;;
78312;SDS011;67568;47.438;21.408;2023-06-22T06:06:34;10.80;;;3.22;;
78312;SDS011;67568;47.438;21.408;2023-06-22T06:09:01;11.40;;;3.53;;
78312;SDS011;67568;47.438;21.408;2023-06-22T06:11:28;12.45;;;3.47;;
78312;SDS011;67568;47.438;21.408;2023-06-22T06:13:55;10.10;;;2.97;;
78312;SDS011;67568;47.438;21.408;2023-06-22T06:16:25;9.52;;;3.03;;
78312;SDS011;67568;47.438;21.408;2023-06-22T06:18:52;10.32;;;2.90;;
78312;SDS011;67568;47.438;21.408;2023-06-22T06:21:19;13.73;;;3.45;;
78312;SDS011;67568;47.438;21.408;2023-06-22T06:23:45;8.95;;;3.42;;
78312;SDS011;67568;47.438;21.408;2023-06-22T06:26:12;13.30;;;3.27;;
78312;SDS011;67568;47.438;21.408;2023-06-22T06:28:39;8.52;;;2.95;;
78312;SDS011;67568;47.438;21.408;2023-06-22T06:31:05;13.68;;;3.20;;
78312;SDS011;67568;47.438;21.408;2023-06-22T06:33:32;8.27;;;2.75;;
78312;SDS011;67568;47.438;21.408;2023-06-22T06:35:59;11.75;;;3.30;;
78312;SDS011;67568;47.438;21.408;2023-06-22T06:38:26;12.20;;;3.40;;
78312;SDS011;67568;47.438;21.408;2023-06-22T06:40:54;12.10;;;3.25;;
78312;SDS011;67568;47.438;21.408;2023-06-22T06:43:20;10.38;;;3.55;;
78312;SDS011;67568;47.438;21.408;2023-06-22T06:45:47;10.80;;;3.20;;
78312;SDS011;67568;47.438;21.408;2023-06-22T06:48:17;8.55;;;3.28;;
78312;SDS011;67568;47.438;21.408;2023-06-22T06:50:44;10.27;;;3.07;;
78312;SDS011;67568;47.438;21.408;2023-06-22T06:53:11;12.05;;;3.80;;
78312;SDS011;67568;47.438;21.408;2023-06-22T06:55:38;12.32;;;3.38;;
78312;SDS011;67568;47.438;21.408;2023-06-22T06:58:05;10.25;;;3.53;;
78312;SDS011;67568;47.438;21.408;2023-06-22T07:00:32;11.10;;;3.47;;
78312;SDS011;67568;47.438;21.408;2023-06-22T07:02:58;14.00;;;3.50;;
78312;SDS011;67568;47.438;21.408;2023-06-22T07:05:25;12.63;;;3.45;;
78312;SDS011;67568;47.438;21.408;2023-06-22T07:07:52;11.35;;;3.80;;
78312;SDS011;67568;47.438;21.408;2023-06-22T07:10:19;11.55;;;4.00;;
78312;SDS011;67568;47.438;21.408;2023-06-22T07:12:46;12.43;;;3.78;;
78312;SDS011;67568;47.438;21.408;2023-06-22T07:15:13;14.83;;;3.80;;
78312;SDS011;67568;47.438;21.408;2023-06-22T07:17:40;11.38;;;3.63;;
78312;SDS011;67568;47.438;21.408;2023-06-22T07:20:07;14.02;;;4.60;;
78312;SDS011;67568;47.438;21.408;2023-06-22T07:22:35;12.82;;;3.75;;
78312;SDS011;67568;47.438;21.408;2023-06-22T07:25:02;15.82;;;4.25;;
78312;SDS011;67568;47.438;21.408;2023-06-22T07:27:29;13.63;;;4.63;;
78312;SDS011;67568;47.438;21.408;2023-06-22T07:29:56;10.35;;;4.45;;
78312;SDS011;67568;47.438;21.408;2023-06-22T07:32:23;11.57;;;4.38;;
78312;SDS011;67568;47.438;21.408;2023-06-22T07:34:50;11.57;;;4.00;;
78312;SDS011;67568;47.438;21.408;2023-06-22T07:37:17;12.25;;;4.45;;
78312;SDS011;67568;47.438;21.408;2023-06-22T07:39:43;15.30;;;4.80;;
78312;SDS011;67568;47.438;21.408;2023-06-22T07:42:10;19.70;;;4.80;;
78312;SDS011;67568;47.438;21.408;2023-06-22T07:44:37;15.75;;;4.35;;
78312;SDS011;67568;47.438;21.408;2023-06-22T07:47:05;10.48;;;3.80;;
78312;SDS011;67568;47.438;21.408;2023-06-22T07:49:32;10.40;;;4.10;;
78312;SDS011;67568;47.438;21.408;2023-06-22T07:51:59;11.73;;;4.10;;
78312;SDS011;67568;47.438;21.408;2023-06-22T07:54:26;11.68;;;3.95;;
78312;SDS011;67568;47.438;21.408;2023-06-22T07:56:53;13.52;;;4.15;;
78312;SDS011;67568;47.438;21.408;2023-06-22T07:59:19;16.48;;;4.32;;
78312;SDS011;67568;47.438;21.408;2023-06-22T08:01:48;13.88;;;4.78;;
78312;SDS011;67568;47.438;21.408;2023-06-22T08:04:16;12.70;;;4.00;;
78312;SDS011;67568;47.438;21.408;2023-06-22T08:06:46;12.25;;;4.15;;
78312;SDS011;67568;47.438;21.408;2023-06-22T08:09:13;11.88;;;4.40;;
78312;SDS011;67568;47.438;21.408;2023-06-22T08:11:40;11.13;;;4.22;;
78312;SDS011;67568;47.438;21.408;2023-06-22T08:14:06;14.23;;;4.13;;
78312;SDS011;67568;47.438;21.408;2023-06-22T08:16:33;11.43;;;4.43;;
78312;SDS011;67568;47.438;21.408;2023-06-22T08:19:00;15.10;;;4.57;;
78312;SDS011;67568;47.438;21.408;2023-06-22T08:21:27;11.65;;;3.95;;
78312;SDS011;67568;47.438;21.408;2023-06-22T08:23:54;9.73;;;4.65;;
78312;SDS011;67568;47.438;21.408;2023-06-22T08:26:21;12.43;;;4.53;;
78312;SDS011;67568;47.438;21.408;2023-06-22T08:28:48;14.43;;;4.10;;
78312;SDS011;67568;47.438;21.408;2023-06-22T08:31:16;8.45;;;4.05;;
78312;SDS011;67568;47.438;21.408;2023-06-22T08:33:43;15.48;;;4.45;;
78312;SDS011;67568;47.438;21.408;2023-06-22T08:36:15;10.93;;;4.30;;
78312;SDS011;67568;47.438;21.408;2023-06-22T08:38:42;9.30;;;3.70;;
78312;SDS011;67568;47.438;21.408;2023-06-22T08:41:08;9.90;;;3.93;;
78312;SDS011;67568;47.438;21.408;2023-06-22T08:43:35;11.18;;;3.75;;
78312;SDS011;67568;47.438;21.408;2023-06-22T08:46:02;11.13;;;3.83;;
78312;SDS011;67568;47.438;21.408;2023-06-22T08:48:28;9.63;;;4.00;;
78312;SDS011;67568;47.438;21.408;2023-06-22T08:50:55;11.73;;;3.97;;
78312;SDS011;67568;47.438;21.408;2023-06-22T08:53:22;9.53;;;3.60;;
78312;SDS011;67568;47.438;21.408;2023-06-22T08:55:49;9.00;;;4.10;;
78312;SDS011;67568;47.438;21.408;2023-06-22T08:58:16;10.45;;;4.47;;
78312;SDS011;67568;47.438;21.408;2023-06-22T09:00:43;8.60;;;3.80;;
78312;SDS011;67568;47.438;21.408;2023-06-22T09:03:10;10.27;;;4.57;;
78312;SDS011;67568;47.438;21.408;2023-06-22T09:05:37;12.80;;;4.03;;
78312;SDS011;67568;47.438;21.408;2023-06-22T09:08:04;10.15;;;3.88;;
78312;SDS011;67568;47.438;21.408;2023-06-22T09:10:30;10.18;;;4.10;;
78312;SDS011;67568;47.438;21.408;2023-06-22T09:12:57;10.10;;;3.70;;
78312;SDS011;67568;47.438;21.408;2023-06-22T09:15:24;10.48;;;4.65;;
78312;SDS011;67568;47.438;21.408;2023-06-22T09:17:51;9.70;;;4.20;;
78312;SDS011;67568;47.438;21.408;2023-06-22T09:20:18;11.63;;;4.15;;
78312;SDS011;67568;47.438;21.408;2023-06-22T09:22:45;10.82;;;4.22;;
78312;SDS011;67568;47.438;21.408;2023-06-22T09:25:12;13.15;;;4.07;;
78312;SDS011;67568;47.438;21.408;2023-06-22T09:27:39;11.63;;;4.43;;
78312;SDS011;67568;47.438;21.408;2023-06-22T09:30:06;8.43;;;4.33;;
78312;SDS011;67568;47.438;21.408;2023-06-22T09:32:33;9.27;;;4.32;;
78312;SDS011;67568;47.438;21.408;2023-06-22T09:35:03;10.45;;;3.65;;
78312;SDS011;67568;47.438;21.408;2023-06-22T09:37:31;11.43;;;4.15;;
78312;SDS011;67568;47.438;21.408;2023-06-22T09:39:58;9.13;;;3.95;;
78312;SDS011;67568;47.438;21.408;2023-06-22T09:42:24;11.87;;;4.17;;
78312;SDS011;67568;47.438;21.408;2023-06-22T09:44:51;13.30;;;4.35;;
78312;SDS011;67568;47.438;21.408;2023-06-22T09:47:18;11.95;;;4.53;;
78312;SDS011;67568;47.438;21.408;2023-06-22T09:49:45;8.90;;;3.80;;
78312;SDS011;67568;47.438;21.408;2023-06-22T09:52:14;9.45;;;3.80;;
78312;SDS011;67568;47.438;21.408;2023-06-22T09:54:41;9.83;;;3.93;;
78312;SDS011;67568;47.438;21.408;2023-06-22T09:57:08;10.35;;;4.35;;
78312;SDS011;67568;47.438;21.408;2023-06-22T09:59:35;10.23;;;3.80;;
78312;SDS011;67568;47.438;21.408;2023-06-22T10:02:02;8.18;;;3.60;;
78312;SDS011;67568;47.438;21.408;2023-06-22T10:04:29;10.35;;;4.20;;
78312;SDS011;67568;47.438;21.408;2023-06-22T10:06:56;11.03;;;4.57;;
78312;SDS011;67568;47.438;21.408;2023-06-22T10:09:23;8.85;;;3.72;;
78312;SDS011;67568;47.438;21.408;2023-06-22T10:11:50;9.63;;;3.78;;
78312;SDS011;67568;47.438;21.408;2023-06-22T10:14:17;10.68;;;4.13;;
78312;SDS011;67568;47.438;21.408;2023-06-22T10:16:43;10.02;;;3.53;;
78312;SDS011;67568;47.438;21.408;2023-06-22T10:19:10;10.37;;;4.17;;
78312;SDS011;67568;47.438;21.408;2023-06-22T10:21:37;8.95;;;3.88;;
78312;SDS011;67568;47.438;21.408;2023-06-22T10:24:04;11.40;;;4.00;;
78312;SDS011;67568;47.438;21.408;2023-06-22T10:26:34;11.90;;;3.90;;
78312;SDS011;67568;47.438;21.408;2023-06-22T10:29:02;10.77;;;4.05;;
78312;SDS011;67568;47.438;21.408;2023-06-22T10:31:32;8.20;;;3.43;;
78312;SDS011;67568;47.438;21.408;2023-06-22T10:33:59;9.68;;;4.07;;
78312;SDS011;67568;47.438;21.408;2023-06-22T10:36:26;13.27;;;4.07;;
78312;SDS011;67568;47.438;21.408;2023-06-22T10:38:56;10.85;;;4.18;;
78312;SDS011;67568;47.438;21.408;2023-06-22T10:41:25;9.70;;;3.90;;
78312;SDS011;67568;47.438;21.408;2023-06-22T10:43:52;10.63;;;4.00;;
78312;SDS011;67568;47.438;21.408;2023-06-22T10:46:26;9.77;;;3.97;;
78312;SDS011;67568;47.438;21.408;2023-06-22T10:48:53;10.45;;;4.43;;
78312;SDS011;67568;47.438;21.408;2023-06-22T10:51:20;11.07;;;4.30;;
78312;SDS011;67568;47.438;21.408;2023-06-22T10:53:47;11.45;;;4.22;;
78312;SDS011;67568;47.438;21.408;2023-06-22T10:56:14;10.47;;;4.33;;
78312;SDS011;67568;47.438;21.408;2023-06-22T10:58:41;9.02;;;3.60;;
78312;SDS011;67568;47.438;21.408;2023-06-22T11:01:08;10.70;;;3.75;;
78312;SDS011;67568;47.438;21.408;2023-06-22T11:03:57;12.82;;;3.95;;
78312;SDS011;67568;47.438;21.408;2023-06-22T11:06:26;8.90;;;3.35;;
78312;SDS011;67568;47.438;21.408;2023-06-22T11:08:59;8.80;;;3.60;;
78312;SDS011;67568;47.438;21.408;2023-06-22T11:11:28;8.55;;;3.75;;
78312;SDS011;67568;47.438;21.408;2023-06-22T11:13:55;9.57;;;3.55;;
78312;SDS011;67568;47.438;21.408;2023-06-22T11:16:22;9.20;;;3.78;;
78312;SDS011;67568;47.438;21.408;2023-06-22T11:18:49;9.68;;;3.55;;
78312;SDS011;67568;47.438;21.408;2023-06-22T11:21:22;13.17;;;3.90;;
78312;SDS011;67568;47.438;21.408;2023-06-22T11:23:48;9.25;;;3.60;;
78312;SDS011;67568;47.438;21.408;2023-06-22T11:26:15;8.75;;;3.35;;
78312;SDS011;67568;47.438;21.408;2023-06-22T11:28:42;11.25;;;3.50;;
78312;SDS011;67568;47.438;21.408;2023-06-22T11:31:09;9.32;;;3.35;;
78312;SDS011;67568;47.438;21.408;2023-06-22T11:33:51;11.00;;;3.60;;
78312;SDS011;67568;47.438;21.408;2023-06-22T11:36:18;10.57;;;3.33;;
78312;SDS011;67568;47.438;21.408;2023-06-22T11:38:45;10.25;;;3.65;;
78312;SDS011;67568;47.438;21.408;2023-06-22T11:41:12;9.77;;;3.30;;
78312;SDS011;67568;47.438;21.408;2023-06-22T11:43:38;10.10;;;3.28;;
78312;SDS011;67568;47.438;21.408;2023-06-22T11:46:05;10.47;;;3.37;;
78312;SDS011;67568;47.438;21.408;2023-06-22T11:48:32;7.47;;;2.90;;
78312;SDS011;67568;47.438;21.408;2023-06-22T11:50:59;10.23;;;3.42;;
78312;SDS011;67568;47.438;21.408;2023-06-22T11:53:26;10.05;;;3.30;;
78312;SDS011;67568;47.438;21.408;2023-06-22T11:55:53;9.90;;;3.15;;
78312;SDS011;67568;47.438;21.408;2023-06-22T11:58:20;10.70;;;3.07;;
78312;SDS011;67568;47.438;21.408;2023-06-22T12:00:48;9.88;;;3.33;;
78312;SDS011;67568;47.438;21.408;2023-06-22T12:03:17;10.25;;;3.70;;
78312;SDS011;67568;47.438;21.408;2023-06-22T12:05:44;14.73;;;3.38;;
78312;SDS011;67568;47.438;21.408;2023-06-22T12:08:11;12.25;;;3.05;;
78312;SDS011;67568;47.438;21.408;2023-06-22T12:10:38;8.37;;;3.37;;
78312;SDS011;67568;47.438;21.408;2023-06-22T12:13:05;10.95;;;3.50;;
78312;SDS011;67568;47.438;21.408;2023-06-22T12:15:32;8.18;;;3.28;;
78312;SDS011;67568;47.438;21.408;2023-06-22T12:17:58;10.77;;;3.65;;
78312;SDS011;67568;47.438;21.408;2023-06-22T12:20:26;12.20;;;4.32;;
78312;SDS011;67568;47.438;21.408;2023-06-22T12:22:53;8.57;;;3.13;;
78312;SDS011;67568;47.438;21.408;2023-06-22T12:25:20;7.55;;;3.28;;
78312;SDS011;67568;47.438;21.408;2023-06-22T12:27:46;14.10;;;3.38;;
78312;SDS011;67568;47.438;21.408;2023-06-22T12:30:13;11.13;;;3.22;;
78312;SDS011;67568;47.438;21.408;2023-06-22T12:32:40;12.75;;;3.65;;
78312;SDS011;67568;47.438;21.408;2023-06-22T12:35:07;11.03;;;3.70;;
78312;SDS011;67568;47.438;21.408;2023-06-22T12:37:34;9.43;;;3.67;;
78312;SDS011;67568;47.438;21.408;2023-06-22T12:40:01;8.75;;;3.40;;
78312;SDS011;67568;47.438;21.408;2023-06-22T12:42:28;12.18;;;3.90;;
78312;SDS011;67568;47.438;21.408;2023-06-22T12:44:54;10.70;;;3.75;;
78312;SDS011;67568;47.438;21.408;2023-06-22T12:47:21;10.43;;;4.00;;
78312;SDS011;67568;47.438;21.408;2023-06-22T12:49:48;9.90;;;3.15;;
78312;SDS011;67568;47.438;21.408;2023-06-22T12:52:15;9.48;;;3.20;;
78312;SDS011;67568;47.438;21.408;2023-06-22T12:54:42;9.68;;;3.20;;
78312;SDS011;67568;47.438;21.408;2023-06-22T12:57:20;9.52;;;3.20;;
78312;SDS011;67568;47.438;21.408;2023-06-22T12:59:48;8.50;;;2.90;;
78312;SDS011;67568;47.438;21.408;2023-06-22T13:02:15;9.68;;;3.35;;
78312;SDS011;67568;47.438;21.408;2023-06-22T13:04:42;8.15;;;3.30;;
78312;SDS011;67568;47.438;21.408;2023-06-22T13:07:09;11.77;;;3.40;;
78312;SDS011;67568;47.438;21.408;2023-06-22T13:09:51;9.50;;;3.10;;
78312;SDS011;67568;47.438;21.408;2023-06-22T13:12:21;12.13;;;3.17;;
78312;SDS011;67568;47.438;21.408;2023-06-22T13:14:48;6.75;;;2.83;;
78312;SDS011;67568;47.438;21.408;2023-06-22T13:17:18;8.23;;;3.15;;
78312;SDS011;67568;47.438;21.408;2023-06-22T13:19:50;8.15;;;3.28;;
78312;SDS011;67568;47.438;21.408;2023-06-22T13:25:02;10.10;;;3.30;;
78312;SDS011;67568;47.438;21.408;2023-06-22T13:27:29;8.25;;;3.33;;
78312;SDS011;67568;47.438;21.408;2023-06-22T13:29:56;9.02;;;3.10;;
78312;SDS011;67568;47.438;21.408;2023-06-22T13:32:26;17.77;;;3.10;;
78312;SDS011;67568;47.438;21.408;2023-06-22T13:34:53;8.20;;;3.10;;
78312;SDS011;67568;47.438;21.408;2023-06-22T13:37:20;9.37;;;3.40;;
78312;SDS011;67568;47.438;21.408;2023-06-22T13:39:47;8.18;;;3.50;;
78312;SDS011;67568;47.438;21.408;2023-06-22T13:42:14;10.13;;;3.33;;
78312;SDS011;67568;47.438;21.408;2023-06-22T13:44:41;9.60;;;3.50;;
78312;SDS011;67568;47.438;21.408;2023-06-22T13:47:07;10.27;;;3.45;;
78312;SDS011;67568;47.438;21.408;2023-06-22T13:49:34;9.93;;;3.37;;
78312;SDS011;67568;47.438;21.408;2023-06-22T13:52:01;13.00;;;3.97;;
78312;SDS011;67568;47.438;21.408;2023-06-22T13:54:28;9.93;;;3.63;;
78312;SDS011;67568;47.438;21.408;2023-06-22T13:56:57;9.18;;;3.50;;
78312;SDS011;67568;47.438;21.408;2023-06-22T13:59:23;10.48;;;3.47;;
78312;SDS011;67568;47.438;21.408;2023-06-22T14:01:50;6.83;;;2.80;;
78312;SDS011;67568;47.438;21.408;2023-06-22T14:04:17;9.38;;;3.42;;
78312;SDS011;67568;47.438;21.408;2023-06-22T14:06:44;10.48;;;3.50;;
78312;SDS011;67568;47.438;21.408;2023-06-22T14:09:10;7.90;;;2.83;;
78312;SDS011;67568;47.438;21.408;2023-06-22T14:11:37;9.00;;;3.10;;
78312;SDS011;67568;47.438;21.408;2023-06-22T14:14:04;9.00;;;3.20;;
78312;SDS011;67568;47.438;21.408;2023-06-22T14:16:31;11.80;;;3.55;;
78312;SDS011;67568;47.438;21.408;2023-06-22T14:18:57;10.10;;;3.35;;
78312;SDS011;67568;47.438;21.408;2023-06-22T14:21:25;10.07;;;3.38;;
78312;SDS011;67568;47.438;21.408;2023-06-22T14:23:52;14.32;;;3.20;;
78312;SDS011;67568;47.438;21.408;2023-06-22T14:26:19;9.83;;;3.20;;
78312;SDS011;67568;47.438;21.408;2023-06-22T14:28:46;13.82;;;3.40;;
78312;SDS011;67568;47.438;21.408;2023-06-22T14:31:14;10.85;;;3.22;;
78312;SDS011;67568;47.438;21.408;2023-06-22T14:33:45;9.60;;;3.30;;
78312;SDS011;67568;47.438;21.408;2023-06-22T14:36:15;6.82;;;2.88;;
78312;SDS011;67568;47.438;21.408;2023-06-22T14:38:43;7.37;;;3.00;;
78312;SDS011;67568;47.438;21.408;2023-06-22T14:41:10;12.88;;;3.60;;
78312;SDS011;67568;47.438;21.408;2023-06-22T14:43:43;9.77;;;3.78;;
78312;SDS011;67568;47.438;21.408;2023-06-22T14:46:11;8.32;;;3.22;;
78312;SDS011;67568;47.438;21.408;2023-06-22T14:48:37;8.82;;;3.50;;
78312;SDS011;67568;47.438;21.408;2023-06-22T14:51:04;12.63;;;3.17;;
78312;SDS011;67568;47.438;21.408;2023-06-22T14:53:31;8.27;;;3.30;;
78312;SDS011;67568;47.438;21.408;2023-06-22T14:55:58;9.35;;;3.33;;
78312;SDS011;67568;47.438;21.408;2023-06-22T14:58:24;9.40;;;3.42;;
78312;SDS011;67568;47.438;21.408;2023-06-22T15:00:51;8.32;;;3.38;;
78312;SDS011;67568;47.438;21.408;2023-06-22T15:03:18;11.47;;;3.53;;
78312;SDS011;67568;47.438;21.408;2023-06-22T15:05:45;8.75;;;3.03;;
78312;SDS011;67568;47.438;21.408;2023-06-22T15:08:12;10.63;;;3.25;;
78312;SDS011;67568;47.438;21.408;2023-06-22T15:10:39;9.82;;;3.50;;
78312;SDS011;67568;47.438;21.408;2023-06-22T15:13:06;11.73;;;3.88;;
78312;SDS011;67568;47.438;21.408;2023-06-22T15:15:32;10.87;;;3.33;;
78312;SDS011;67568;47.438;21.408;2023-06-22T15:17:59;10.57;;;3.75;;